CheckWX is a tool to help pilots better visualize weather data.  It is not intended as a substitute for an official pre-flight weather briefing.

07:22:34 UTC

LEJR METAR
Jerez Airport
Jerez de la Forntera, Spain
Current

23 mins ago

LEJR 150700Z VRB01KT CAVOK 26/16 Q1012
Observed
Jul-15 @ 07:00 UTC
Wind
  • Variable at 1 KTS
Visibility
10,000+ meters
Flight Rules
VFR
Cloud Levels
  • Clear skies
Temperature
26°C / 79°F
Dewpoint
16°C / 61°F
Humidity
54%
Altimeter
29.88" Hg
Pressure
1011.92 hPa
Previous

53 mins ago

LEJR 150630Z VRB01KT CAVOK 24/17 Q1011
Observed
Jul-15 @ 06:30 UTC
Wind
  • Variable at 1 KTS
Visibility
10,000+ meters
Flight Rules
VFR
Cloud Levels
  • Clear skies
Temperature
24°C / 75°F
Dewpoint
17°C / 63°F
Humidity
65%
Altimeter
29.85" Hg
Pressure
1010.92 hPa
Previous

1 hour ago

LEJR 150600Z 03003KT 010V070 CAVOK 23/17 Q1011
Observed
Jul-15 @ 06:00 UTC
Wind
  • 030° at 3 KTS
Visibility
10,000+ meters
Flight Rules
VFR
Cloud Levels
  • Clear skies
Temperature
23°C / 73°F
Dewpoint
17°C / 63°F
Humidity
69%
Altimeter
29.85" Hg
Pressure
1010.92 hPa